Time;durP1;ratioP1;P1;durP2;ratioP2;P2;SDS_P1;SDS_P2;PMS_P1;PMS_P2;Temp;Humidity;BMP_temperature;BMP_pressure;BME280_temperature;BME280_humidity;BME280_pressure;Samples;Min_cycle;Max_cycle;Signal;HPM_P1;HPM_P2
2024/02/25 00:01:19;;;;;;;;;;;;;;;-146.32;100.00;63746.28;4178845;28;19980;-88
2024/02/25 00:03:41;;;;;;;;;;;;;;;-146.32;100.00;63746.28;4174067;28;19958;-85
2024/02/25 00:06:03;;;;;;;;;;;;;;;-146.32;100.00;63746.28;4176309;28;19986;-87
2024/02/25 00:08:23;;;;;;;;;;;;;;;-146.32;100.00;63746.28;4179418;28;19971;-90
2024/02/25 00:10:47;;;;;;;;;;;;;;;-146.32;100.00;63746.28;4180426;28;20292;-89
2024/02/25 00:13:11;;;;;;;;;;;;;;;-146.32;100.00;63746.28;4180435;28;19931;-89
2024/02/25 00:15:34;;;;;;;;;;;;;;;-146.32;100.00;63746.28;4174222;28;19932;-88
2024/02/25 00:17:56;;;;;;;;;;;;;;;-146.32;100.00;63746.28;4171554;28;19931;-89
2024/02/25 00:20:18;;;;;;;;;;;;;;;-146.32;100.00;63746.28;4173647;28;19970;-92
2024/02/25 00:22:40;;;;;;;;;;;;;;;-146.32;100.00;63746.28;4176475;28;19932;-93
2024/02/25 00:25:04;;;;;;;;;;;;;;;-146.32;100.00;63746.28;4163870;28;19975;-94
2024/02/25 00:27:26;;;;;;;;;;;;;;;-146.32;100.00;63746.28;4178759;28;20010;-93
2024/02/25 00:29:49;;;;;;;;;;;;;;;-146.32;100.00;63746.28;4162540;28;19933;-92
2024/02/25 00:32:12;;;;;;;;;;;;;;;-146.32;100.00;63746.28;4171468;28;20338;-93
2024/02/25 00:34:33;;;;;;;;;;;;;;;-146.32;100.00;63746.28;4159578;28;19932;-90
2024/02/25 00:36:58;;;;;;;;;;;;;;;-146.32;100.00;63746.28;4175508;28;20028;-91
2024/02/25 00:39:23;;;;;;;;;;;;;;;-146.32;100.00;63746.28;4163590;28;20017;-91
2024/02/25 00:41:44;;;;;;;;;;;;;;;-146.32;100.00;63746.28;4151854;28;20456;-90
2024/02/25 00:44:09;;;;;;;;;;;;;;;-146.32;100.00;63746.28;4175451;28;19933;-91
2024/02/25 00:46:31;;;;;;;;;;;;;;;-146.32;100.00;63746.28;4175602;28;19989;-92
2024/02/25 00:48:54;;;;;;;;;;;;;;;-146.32;100.00;63746.28;4162424;28;20394;-91
2024/02/25 00:51:17;;;;;;;;;;;;;;;-146.32;100.00;63746.28;4159275;28;19940;-92
2024/02/25 00:53:38;;;;;;;;;;;;;;;-146.32;100.00;63746.28;4173139;28;19931;-88
2024/02/25 00:56:02;;;;;;;;;;;;;;;-146.32;100.00;63746.28;4174646;28;20443;-91
2024/02/25 00:58:22;;;;;;;;;;;;;;;-146.32;100.00;63746.28;4173294;28;19983;-90
2024/02/25 01:00:44;;;;;;;;;;;;;;;-146.32;100.00;63746.28;4172489;28;19991;-89
2024/02/25 01:03:05;;;;;;;;;;;;;;;-146.32;100.00;63746.28;4173950;28;20402;-89
2024/02/25 01:05:28;;;;;;;;;;;;;;;-146.32;100.00;63746.28;4174508;28;19941;-90
2024/02/25 01:07:51;;;;;;;;;;;;;;;-146.32;100.00;63746.28;4159579;28;20623;-88
2024/02/25 01:10:17;;;;;;;;;;;;;;;-146.32;100.00;63746.28;4157761;28;20485;-88
2024/02/25 01:12:39;;;;;;;;;;;;;;;-146.32;100.00;63746.28;4173661;28;19931;-88
2024/02/25 01:15:01;;;;;;;;;;;;;;;-146.32;100.00;63746.28;4158266;28;19948;-88
2024/02/25 01:17:23;;;;;;;;;;;;;;;-146.32;100.00;63746.28;4165979;28;19985;-88
2024/02/25 01:19:45;;;;;;;;;;;;;;;-146.32;100.00;63746.28;4174472;28;20012;-87
2024/02/25 01:22:11;;;;;;;;;;;;;;;-146.32;100.00;63746.28;4178661;28;20432;-87
2024/02/25 01:24:32;;;;;;;;;;;;;;;-146.32;100.00;63746.28;4176689;28;19967;-87
2024/02/25 01:26:53;;;;;;;;;;;;;;;-146.32;100.00;63746.28;4147814;28;20024;-88
2024/02/25 01:29:15;;;;;;;;;;;;;;;-146.32;100.00;63746.28;4173564;28;19932;-91
2024/02/25 01:31:41;;;;;;;;;;;;;;;-146.32;100.00;63746.28;4177384;28;20012;-87
2024/02/25 01:34:02;;;;;;;;;;;;;;;-146.32;100.00;63746.28;4159991;28;19934;-87
2024/02/25 01:36:26;;;;;;;;;;;;;;;-146.32;100.00;63746.28;4146723;28;19947;-87
2024/02/25 01:38:47;;;;;;;;;;;;;;;-146.32;100.00;63746.28;4177034;28;20386;-85
2024/02/25 01:41:11;;;;;;;;;;;;;;;-146.32;100.00;63746.28;4167562;28;19955;-86
2024/02/25 01:43:33;;;;;;;;;;;;;;;-146.32;100.00;63746.28;4176213;28;19939;-85
2024/02/25 01:45:59;;;;;;;;;;;;;;;-146.32;100.00;63746.28;4164930;28;19954;-86
2024/02/25 01:48:21;;;;;;;;;;;;;;;-146.32;100.00;63746.28;4160075;28;19932;-86
2024/02/25 01:50:44;;;;;;;;;;;;;;;-146.32;100.00;63746.28;4176814;28;19935;-85
2024/02/25 01:53:05;;;;;;;;;;;;;;;-146.32;100.00;63746.28;4176437;28;19931;-85
2024/02/25 01:55:26;;;;;;;;;;;;;;;-146.32;100.00;63746.28;4164590;28;20093;-86
2024/02/25 01:57:49;;;;;;;;;;;;;;;-146.32;100.00;63746.28;4151749;28;20044;-87
2024/02/25 02:00:10;;;;;;;;;;;;;;;-146.32;100.00;63746.28;4175924;28;19994;-85
2024/02/25 02:02:33;;;;;;;;;;;;;;;-146.32;100.00;63746.28;4175572;28;19951;-86
2024/02/25 02:04:58;;;;;;;;;;;;;;;-146.32;100.00;63746.28;4159712;28;20543;-86
2024/02/25 02:07:20;;;;;;;;;;;;;;;-146.32;100.00;63746.28;4163368;28;19932;-86
2024/02/25 02:09:41;;;;;;;;;;;;;;;-146.32;100.00;63746.28;4159881;28;20039;-87
2024/02/25 02:12:03;;;;;;;;;;;;;;;-146.32;100.00;63746.28;4159389;28;19996;-90
2024/02/25 02:14:25;;;;;;;;;;;;;;;-146.32;100.00;63746.28;4175352;28;19933;-86
2024/02/25 02:16:52;;;;;;;;;;;;;;;-146.32;100.00;63746.28;4174510;28;19931;-87
2024/02/25 02:19:16;;;;;;;;;;;;;;;-146.32;100.00;63746.28;4176312;28;19931;-86
2024/02/25 02:21:39;;;;;;;;;;;;;;;-146.32;100.00;63746.28;4172196;28;19931;-87
2024/02/25 02:24:00;;;;;;;;;;;;;;;-146.32;100.00;63746.28;4173448;28;19971;-88
2024/02/25 02:26:26;;;;;;;;;;;;;;;-146.32;100.00;63746.28;4158840;28;19932;-87
2024/02/25 02:28:53;;;;;;;;;;;;;;;-146.32;100.00;63746.28;4173952;28;19941;-87
2024/02/25 02:31:14;;;;;;;;;;;;;;;-146.32;100.00;63746.28;4175463;28;20011;-87
2024/02/25 02:33:43;;;;;;;;;;;;;;;-146.32;100.00;63746.28;4175017;28;19987;-88
2024/02/25 02:36:04;;;;;;;;;;;;;;;-146.32;100.00;63746.28;4160853;28;19983;-88
2024/02/25 02:38:29;;;;;;;;;;;;;;;-146.32;100.00;63746.28;4159962;28;19996;-88
2024/02/25 02:40:50;;;;;;;;;;;;;;;-146.32;100.00;63746.28;4165646;28;19971;-87
2024/02/25 02:43:10;;;;;;;;;;;;;;;-146.32;100.00;63746.28;4171618;28;19994;-87
2024/02/25 02:45:36;;;;;;;;;;;;;;;-146.32;100.00;63746.28;4174432;28;19987;-88
2024/02/25 02:47:57;;;;;;;;;;;;;;;-146.32;100.00;63746.28;4159277;28;20012;-87
2024/02/25 02:50:18;;;;;;;;;;;;;;;-146.32;100.00;63746.28;4174870;28;19978;-87
2024/02/25 02:52:39;;;;;;;;;;;;;;;-146.32;100.00;63746.28;4175221;28;19960;-87
2024/02/25 02:55:02;;;;;;;;;;;;;;;-146.32;100.00;63746.28;4171794;28;19968;-87
2024/02/25 02:57:22;;;;;;;;;;;;;;;-146.32;100.00;63746.28;4144578;28;19937;-87
2024/02/25 02:59:43;;;;;;;;;;;;;;;-146.32;100.00;63746.28;4176059;28;19932;-87
2024/02/25 03:02:03;;;;;;;;;;;;;;;-146.32;100.00;63746.28;4173078;28;19940;-88
2024/02/25 03:04:23;;;;;;;;;;;;;;;-146.32;100.00;63746.28;4173038;28;19975;-87
2024/02/25 03:06:44;;;;;;;;;;;;;;;-146.32;100.00;63746.28;4158968;28;19935;-88
2024/02/25 03:09:08;;;;;;;;;;;;;;;-146.32;100.00;63746.28;4158408;28;20028;-87
2024/02/25 03:11:31;;;;;;;;;;;;;;;-146.32;100.00;63746.28;4159422;28;19936;-88
2024/02/25 03:13:52;;;;;;;;;;;;;;;-146.32;100.00;63746.28;4146895;28;19977;-87
2024/02/25 03:16:13;;;;;;;;;;;;;;;-146.32;100.00;63746.28;4159665;28;20414;-87
2024/02/25 03:18:36;;;;;;;;;;;;;;;-146.32;100.00;63746.28;4175105;28;20310;-86
2024/02/25 03:21:03;;;;;;;;;;;;;;;-146.32;100.00;63746.28;4160323;28;20394;-87
2024/02/25 03:23:26;;;;;;;;;;;;;;;-146.32;100.00;63746.28;4172602;28;20030;-87
2024/02/25 03:25:47;;;;;;;;;;;;;;;-146.32;100.00;63746.28;4173391;28;20025;-87
2024/02/25 03:28:09;;;;;;;;;;;;;;;-146.32;100.00;63746.28;4161151;28;20311;-87
2024/02/25 03:30:29;;;;;;;;;;;;;;;-146.32;100.00;63746.28;4159390;28;20434;-88
2024/02/25 03:32:50;;;;;;;;;;;;;;;-146.32;100.00;63746.28;4173913;28;19935;-88
2024/02/25 03:35:11;;;;;;;;;;;;;;;-146.32;100.00;63746.28;4163278;28;20236;-87
2024/02/25 03:37:31;;;;;;;;;;;;;;;-146.32;100.00;63746.28;4173525;28;19932;-87
2024/02/25 03:39:53;;;;;;;;;;;;;;;-146.32;100.00;63746.28;4175770;28;19936;-87
2024/02/25 03:42:14;;;;;;;;;;;;;;;-146.32;100.00;63746.28;4143481;28;19979;-87
2024/02/25 03:44:36;;;;;;;;;;;;;;;-146.32;100.00;63746.28;4157864;28;19947;-88
2024/02/25 03:46:57;;;;;;;;;;;;;;;-146.32;100.00;63746.28;4173970;28;20032;-87
2024/02/25 03:49:24;;;;;;;;;;;;;;;-146.32;100.00;63746.28;4159634;28;19967;-87
2024/02/25 03:51:45;;;;;;;;;;;;;;;-146.32;100.00;63746.28;4159563;28;19972;-88
2024/02/25 03:54:08;;;;;;;;;;;;;;;-146.32;100.00;63746.28;4174605;28;20025;-88
2024/02/25 03:56:32;;;;;;;;;;;;;;;-146.32;100.00;63746.28;4159408;28;20277;-87
2024/02/25 03:58:55;;;;;;;;;;;;;;;-146.32;100.00;63746.28;4174803;28;20024;-87
2024/02/25 04:01:22;;;;;;;;;;;;;;;-146.32;100.00;63746.28;4173596;28;20331;-86
2024/02/25 04:03:43;;;;;;;;;;;;;;;-146.32;100.00;63746.28;4176693;28;19947;-87
2024/02/25 04:06:05;;;;;;;;;;;;;;;-146.32;100.00;63746.28;4172985;28;20350;-88
2024/02/25 04:08:25;;;;;;;;;;;;;;;-146.32;100.00;63746.28;4144515;28;19932;-87
2024/02/25 04:10:48;;;;;;;;;;;;;;;-146.32;100.00;63746.28;4174517;28;20008;-86
2024/02/25 04:13:09;;;;;;;;;;;;;;;-146.32;100.00;63746.28;4145449;28;20037;-88
2024/02/25 04:15:31;;;;;;;;;;;;;;;-146.32;100.00;63746.28;4173253;28;20002;-89
2024/02/25 04:17:53;;;;;;;;;;;;;;;-146.32;100.00;63746.28;4173889;28;20375;-88
2024/02/25 04:20:14;;;;;;;;;;;;;;;-146.32;100.00;63746.28;4159093;28;19964;-88
2024/02/25 04:22:38;;;;;;;;;;;;;;;-146.32;100.00;63746.28;4172872;28;19933;-88
2024/02/25 04:25:00;;;;;;;;;;;;;;;-146.32;100.00;63746.28;4173764;28;20024;-88
2024/02/25 04:27:21;;;;;;;;;;;;;;;-146.32;100.00;63746.28;4173276;28;19979;-88
2024/02/25 04:29:43;;;;;;;;;;;;;;;-146.32;100.00;63746.28;4174652;28;19955;-87
2024/02/25 04:32:05;;;;;;;;;;;;;;;-146.32;100.00;63746.28;4171932;28;19985;-88
2024/02/25 04:34:27;;;;;;;;;;;;;;;-146.32;100.00;63746.28;4160026;28;19931;-88
2024/02/25 04:36:48;;;;;;;;;;;;;;;-146.32;100.00;63746.28;4178388;28;19936;-88
2024/02/25 04:39:09;;;;;;;;;;;;;;;-146.32;100.00;63746.28;4173567;28;20024;-88
2024/02/25 04:41:30;;;;;;;;;;;;;;;-146.32;100.00;63746.28;4174728;28;20383;-88
2024/02/25 04:43:52;;;;;;;;;;;;;;;-146.32;100.00;63746.28;4171887;28;20096;-88
2024/02/25 04:46:13;;;;;;;;;;;;;;;-146.32;100.00;63746.28;4158023;28;20410;-87
2024/02/25 04:48:34;;;;;;;;;;;;;;;-146.32;100.00;63746.28;4156676;28;20056;-88
2024/02/25 04:50:57;;;;;;;;;;;;;;;-146.32;100.00;63746.28;4173470;28;20015;-89
2024/02/25 04:53:18;;;;;;;;;;;;;;;-146.32;100.00;63746.28;4155859;28;20020;-89
2024/02/25 04:55:43;;;;;;;;;;;;;;;-146.32;100.00;63746.28;4173860;28;19939;-88
2024/02/25 04:58:07;;;;;;;;;;;;;;;-146.32;100.00;63746.28;4157366;28;19984;-91
2024/02/25 05:00:28;;;;;;;;;;;;;;;-146.32;100.00;63746.28;4172429;28;19935;-89
2024/02/25 05:02:48;;;;;;;;;;;;;;;-146.32;100.00;63746.28;4172883;28;20398;-88
2024/02/25 05:05:10;;;;;;;;;;;;;;;-146.32;100.00;63746.28;4172859;28;20275;-88
2024/02/25 05:07:32;;;;;;;;;;;;;;;-146.32;100.00;63746.28;4171098;28;20442;-88
2024/02/25 05:09:53;;;;;;;;;;;;;;;-146.32;100.00;63746.28;4158006;28;19932;-88
2024/02/25 05:12:16;;;;;;;;;;;;;;;-146.32;100.00;63746.28;4158141;28;20012;-89
2024/02/25 05:14:37;;;;;;;;;;;;;;;-146.32;100.00;63746.28;4158673;28;19936;-89
2024/02/25 05:16:59;;;;;;;;;;;;;;;-146.32;100.00;63746.28;4158790;28;20450;-88
2024/02/25 05:19:20;;;;;;;;;;;;;;;-146.32;100.00;63746.28;4173029;28;20017;-89
2024/02/25 05:21:41;;;;;;;;;;;;;;;-146.32;100.00;63746.28;4159080;28;19987;-89
2024/02/25 05:24:07;;;;;;;;;;;;;;;-146.32;100.00;63746.28;4172502;28;19991;-89
2024/02/25 05:26:28;;;;;;;;;;;;;;;-146.32;100.00;63746.28;4158685;28;20001;-89
2024/02/25 05:28:49;;;;;;;;;;;;;;;-146.32;100.00;63746.28;4171232;28;20283;-88
2024/02/25 05:31:14;;;;;;;;;;;;;;;-146.32;100.00;63746.28;4170705;28;19936;-88
2024/02/25 05:33:35;;;;;;;;;;;;;;;-146.32;100.00;63746.28;4163602;28;19931;-90
2024/02/25 05:35:56;;;;;;;;;;;;;;;-146.32;100.00;63746.28;4156178;28;19949;-89
2024/02/25 05:38:17;;;;;;;;;;;;;;;-146.32;100.00;63746.28;4156897;28;19932;-88
2024/02/25 05:40:42;;;;;;;;;;;;;;;-146.32;100.00;63746.28;4158161;28;19933;-90
2024/02/25 05:43:03;;;;;;;;;;;;;;;-146.32;100.00;63746.28;4171700;28;19936;-89
2024/02/25 05:45:24;;;;;;;;;;;;;;;-146.32;100.00;63746.28;4173567;28;19951;-90
2024/02/25 05:47:45;;;;;;;;;;;;;;;-146.32;100.00;63746.28;4174170;28;19932;-90
2024/02/25 05:50:06;;;;;;;;;;;;;;;-146.32;100.00;63746.28;4157814;28;19984;-89
2024/02/25 05:52:27;;;;;;;;;;;;;;;-146.32;100.00;63746.28;4156946;28;20356;-89
2024/02/25 05:54:48;;;;;;;;;;;;;;;-146.32;100.00;63746.28;4171782;28;19932;-89
2024/02/25 05:57:10;;;;;;;;;;;;;;;-146.32;100.00;63746.28;4158254;28;19968;-88
2024/02/25 05:59:31;;;;;;;;;;;;;;;-146.32;100.00;63746.28;4157168;28;20501;-88
2024/02/25 06:01:52;;;;;;;;;;;;;;;-146.32;100.00;63746.28;4171141;28;19940;-88
2024/02/25 06:04:13;;;;;;;;;;;;;;;-146.32;100.00;63746.28;4173524;28;19936;-88
2024/02/25 06:06:34;;;;;;;;;;;;;;;-146.32;100.00;63746.28;4161531;28;19931;-88
2024/02/25 06:08:55;;;;;;;;;;;;;;;-146.32;100.00;63746.28;4160890;28;19979;-88
2024/02/25 06:11:17;;;;;;;;;;;;;;;-146.32;100.00;63746.28;4175989;28;20278;-88
2024/02/25 06:13:40;;;;;;;;;;;;;;;-146.32;100.00;63746.28;4161078;28;19943;-88
2024/02/25 06:16:01;;;;;;;;;;;;;;;-146.32;100.00;63746.28;4160563;28;20027;-87
2024/02/25 06:18:21;;;;;;;;;;;;;;;-146.32;100.00;63746.28;4159500;28;20000;-88
2024/02/25 06:20:42;;;;;;;;;;;;;;;-146.32;100.00;63746.28;4175135;28;20394;-88
2024/02/25 06:23:03;;;;;;;;;;;;;;;-146.32;100.00;63746.28;4133815;28;19961;-89
2024/02/25 06:25:27;;;;;;;;;;;;;;;-146.32;100.00;63746.28;4174645;28;19931;-87
2024/02/25 06:27:50;;;;;;;;;;;;;;;-146.32;100.00;63746.28;4178852;28;19932;-88
2024/02/25 06:30:15;;;;;;;;;;;;;;;-146.32;100.00;63746.28;4167579;28;19941;-87
2024/02/25 06:32:40;;;;;;;;;;;;;;;-146.32;100.00;63746.28;4171944;28;19995;-87
2024/02/25 06:35:01;;;;;;;;;;;;;;;-146.32;100.00;63746.28;4169158;28;19960;-86
2024/02/25 06:37:22;;;;;;;;;;;;;;;-146.32;100.00;63746.28;4159019;28;19975;-87
2024/02/25 06:39:44;;;;;;;;;;;;;;;-146.32;100.00;63746.28;4176567;28;20343;-86
2024/02/25 06:42:05;;;;;;;;;;;;;;;-146.32;100.00;63746.28;4173078;28;19940;-87
2024/02/25 06:44:26;;;;;;;;;;;;;;;-146.32;100.00;63746.28;4159829;28;19936;-88
2024/02/25 06:46:49;;;;;;;;;;;;;;;-146.32;100.00;63746.28;4175344;28;19976;-88
2024/02/25 06:49:10;;;;;;;;;;;;;;;-146.32;100.00;63746.28;4174599;28;19936;-87
2024/02/25 06:51:30;;;;;;;;;;;;;;;-146.32;100.00;63746.28;4175338;28;19931;-87
2024/02/25 06:53:52;;;;;;;;;;;;;;;-146.32;100.00;63746.28;4159772;28;20411;-88
2024/02/25 06:56:12;;;;;;;;;;;;;;;-146.32;100.00;63746.28;4159744;28;20453;-89
2024/02/25 06:58:33;;;;;;;;;;;;;;;-146.32;100.00;63746.28;4174334;28;19932;-88
2024/02/25 07:00:54;;;;;;;;;;;;;;;-146.32;100.00;63746.28;4174922;28;20288;-88
2024/02/25 07:03:16;;;;;;;;;;;;;;;-146.32;100.00;63746.28;4174033;28;20482;-88
2024/02/25 07:05:37;;;;;;;;;;;;;;;-146.32;100.00;63746.28;4159677;28;20300;-88
2024/02/25 07:07:58;;;;;;;;;;;;;;;-146.32;100.00;63746.28;4174769;28;20386;-88
2024/02/25 07:10:18;;;;;;;;;;;;;;;-146.32;100.00;63746.28;4159483;28;19959;-88
2024/02/25 07:12:41;;;;;;;;;;;;;;;-146.32;100.00;63746.28;4161686;28;20010;-88
2024/02/25 07:15:02;;;;;;;;;;;;;;;-146.32;100.00;63746.28;4158551;28;20499;-89
2024/02/25 07:17:23;;;;;;;;;;;;;;;-146.32;100.00;63746.28;4174618;28;19935;-88
2024/02/25 07:19:45;;;;;;;;;;;;;;;-146.32;100.00;63746.28;4174044;28;20028;-89
2024/02/25 07:22:06;;;;;;;;;;;;;;;-146.32;100.00;63746.28;4159494;28;20026;-88
2024/02/25 07:24:28;;;;;;;;;;;;;;;-146.32;100.00;63746.28;4174590;28;20257;-88
2024/02/25 07:26:50;;;;;;;;;;;;;;;-146.32;100.00;63746.28;4173243;28;19967;-87
2024/02/25 07:29:12;;;;;;;;;;;;;;;-146.32;100.00;63746.28;4173195;28;19935;-88
2024/02/25 07:31:33;;;;;;;;;;;;;;;-146.32;100.00;63746.28;4158564;28;19969;-89
2024/02/25 07:33:54;;;;;;;;;;;;;;;-146.32;100.00;63746.28;4159497;28;19932;-89
2024/02/25 07:36:17;;;;;;;;;;;;;;;-146.32;100.00;63746.28;4175041;28;19936;-87
2024/02/25 07:38:38;;;;;;;;;;;;;;;-146.32;100.00;63746.28;4174929;28;20012;-89
2024/02/25 07:40:59;;;;;;;;;;;;;;;-146.32;100.00;63746.28;4174310;28;20432;-88
2024/02/25 07:43:21;;;;;;;;;;;;;;;-146.32;100.00;63746.28;4145220;28;19960;-87
2024/02/25 07:45:42;;;;;;;;;;;;;;;-146.32;100.00;63746.28;4157897;28;19940;-88
2024/02/25 07:48:03;;;;;;;;;;;;;;;-146.32;100.00;63746.28;4173502;28;19936;-86
2024/02/25 07:50:24;;;;;;;;;;;;;;;-146.32;100.00;63746.28;4174926;28;19939;-88
2024/02/25 07:52:47;;;;;;;;;;;;;;;-146.32;100.00;63746.28;4173352;28;19983;-86
2024/02/25 07:55:09;;;;;;;;;;;;;;;-146.32;100.00;63746.28;4171812;28;20011;-87
2024/02/25 07:57:33;;;;;;;;;;;;;;;-146.32;100.00;63746.28;4174154;28;20418;-86
2024/02/25 07:59:54;;;;;;;;;;;;;;;-146.32;100.00;63746.28;4173228;28;19931;-87
2024/02/25 08:02:16;;;;;;;;;;;;;;;-146.32;100.00;63746.28;4173843;28;19944;-84
2024/02/25 08:04:39;;;;;;;;;;;;;;;-146.32;100.00;63746.28;4173013;28;20448;-84
2024/02/25 08:06:59;;;;;;;;;;;;;;;-146.32;100.00;63746.28;4174410;28;20020;-84
2024/02/25 08:09:21;;;;;;;;;;;;;;;-146.32;100.00;63746.28;4174150;28;19936;-85
2024/02/25 08:11:43;;;;;;;;;;;;;;;-146.32;100.00;63746.28;4173505;28;19936;-86
2024/02/25 08:14:04;;;;;;;;;;;;;;;-146.32;100.00;63746.28;4174609;28;20351;-85
2024/02/25 08:16:26;;;;;;;;;;;;;;;-146.32;100.00;63746.28;4176112;28;20391;-85
2024/02/25 08:18:47;;;;;;;;;;;;;;;-146.32;100.00;63746.28;4172786;28;19931;-86
2024/02/25 08:21:08;;;;;;;;;;;;;;;-146.32;100.00;63746.28;4158406;28;19936;-85
2024/02/25 08:23:29;;;;;;;;;;;;;;;-146.32;100.00;63746.28;4177153;28;19971;-85
2024/02/25 08:25:51;;;;;;;;;;;;;;;-146.32;100.00;63746.28;4178760;28;19995;-86
2024/02/25 08:28:11;;;;;;;;;;;;;;;-146.32;100.00;63746.28;4173014;28;19939;-87
2024/02/25 08:30:32;;;;;;;;;;;;;;;-146.32;100.00;63746.28;4173332;28;20010;-87
2024/02/25 08:32:54;;;;;;;;;;;;;;;-146.32;100.00;63746.28;4172159;28;19971;-86
2024/02/25 08:35:14;;;;;;;;;;;;;;;-146.32;100.00;63746.28;4172191;28;20409;-87
2024/02/25 08:37:35;;;;;;;;;;;;;;;-146.32;100.00;63746.28;4171586;28;19940;-88
2024/02/25 08:39:56;;;;;;;;;;;;;;;-146.32;100.00;63746.28;4178351;28;20020;-87
2024/02/25 08:42:19;;;;;;;;;;;;;;;-146.32;100.00;63746.28;4169622;28;19963;-86
2024/02/25 08:44:40;;;;;;;;;;;;;;;-146.32;100.00;63746.28;4157732;28;20307;-86
2024/02/25 08:47:01;;;;;;;;;;;;;;;-146.32;100.00;63746.28;4161793;28;19935;-87
2024/02/25 08:49:22;;;;;;;;;;;;;;;-146.32;100.00;63746.28;4174544;28;19959;-87
2024/02/25 08:51:43;;;;;;;;;;;;;;;-146.32;100.00;63746.28;4157268;28;20011;-88
2024/02/25 08:54:04;;;;;;;;;;;;;;;-146.32;100.00;63746.28;4156811;28;19979;-87
2024/02/25 08:56:28;;;;;;;;;;;;;;;-146.32;100.00;63746.28;4164427;28;19971;-86
2024/02/25 08:58:57;;;;;;;;;;;;;;;-146.32;100.00;63746.28;4164866;28;19936;-87
2024/02/25 09:01:21;;;;;;;;;;;;;;;-146.32;100.00;63746.28;4157060;28;19936;-88
2024/02/25 09:03:42;;;;;;;;;;;;;;;-146.32;100.00;63746.28;4173505;28;19980;-83
2024/02/25 09:06:05;;;;;;;;;;;;;;;-146.32;100.00;63746.28;4174702;28;19947;-85
2024/02/25 09:08:30;;;;;;;;;;;;;;;-146.32;100.00;63746.28;4158138;28;19932;-84
2024/02/25 09:10:54;;;;;;;;;;;;;;;-146.32;100.00;63746.28;4171224;28;20012;-83
2024/02/25 09:13:18;;;;;;;;;;;;;;;-146.32;100.00;63746.28;4172520;28;20015;-84
2024/02/25 09:15:45;;;;;;;;;;;;;;;-146.32;100.00;63746.28;4172957;28;20440;-85
2024/02/25 09:18:14;;;;;;;;;;;;;;;-146.32;100.00;63746.28;4173272;28;20426;-82
2024/02/25 09:20:38;;;;;;;;;;;;;;;-146.32;100.00;63746.28;4173966;28;19931;-87
2024/02/25 09:23:04;;;;;;;;;;;;;;;-146.32;100.00;63746.28;4158742;28;19992;-85
2024/02/25 09:25:25;;;;;;;;;;;;;;;-146.32;100.00;63746.28;4172952;28;20000;-83
2024/02/25 09:27:57;;;;;;;;;;;;;;;-146.32;100.00;63746.28;4174788;28;19935;-83
2024/02/25 09:30:18;;;;;;;;;;;;;;;-146.32;100.00;63746.28;4174143;28;19932;-86
2024/02/25 09:32:47;;;;;;;;;;;;;;;-146.32;100.00;63746.28;4172435;28;20017;-88
2024/02/25 09:35:08;;;;;;;;;;;;;;;-146.32;100.00;63746.28;4171727;28;20056;-82
2024/02/25 09:37:28;;;;;;;;;;;;;;;-146.32;100.00;63746.28;4170335;28;20287;-82
2024/02/25 09:39:52;;;;;;;;;;;;;;;-146.32;100.00;63746.28;4177661;28;19989;-81
2024/02/25 09:42:13;;;;;;;;;;;;;;;-146.32;100.00;63746.28;4179036;28;19998;-81
2024/02/25 09:44:34;;;;;;;;;;;;;;;-146.32;100.00;63746.28;4177490;28;19939;-82
2024/02/25 09:46:55;;;;;;;;;;;;;;;-146.32;100.00;63746.28;4175469;28;19983;-81
2024/02/25 09:49:18;;;;;;;;;;;;;;;-146.32;100.00;63746.28;4176186;28;20035;-81
2024/02/25 09:51:39;;;;;;;;;;;;;;;-146.32;100.00;63746.28;4174209;28;19940;-82
2024/02/25 09:54:00;;;;;;;;;;;;;;;-146.32;100.00;63746.28;4173511;28;19932;-82
2024/02/25 09:56:21;;;;;;;;;;;;;;;-146.32;100.00;63746.28;4158647;28;20017;-82
2024/02/25 09:58:42;;;;;;;;;;;;;;;-146.32;100.00;63746.28;4175406;28;19933;-83
2024/02/25 10:01:05;;;;;;;;;;;;;;;-146.32;100.00;63746.28;4158766;28;20016;-82
2024/02/25 10:03:25;;;;;;;;;;;;;;;-146.32;100.00;63746.28;4175575;28;19951;-80
2024/02/25 10:05:50;;;;;;;;;;;;;;;-146.32;100.00;63746.28;4175877;28;19967;-83
2024/02/25 10:08:14;;;;;;;;;;;;;;;-146.32;100.00;63746.28;4174659;28;19951;-81
2024/02/25 10:10:45;;;;;;;;;;;;;;;-146.32;100.00;63746.28;4174674;28;20471;-80
2024/02/25 10:13:13;;;;;;;;;;;;;;;-146.32;100.00;63746.28;4175497;28;20020;-82
2024/02/25 10:15:38;;;;;;;;;;;;;;;-146.32;100.00;63746.28;4176126;28;19975;-82
2024/02/25 10:17:59;;;;;;;;;;;;;;;-146.32;100.00;63746.28;4175333;28;19947;-82
2024/02/25 10:20:24;;;;;;;;;;;;;;;-146.32;100.00;63746.28;4157263;28;20024;-82
2024/02/25 10:22:47;;;;;;;;;;;;;;;-146.32;100.00;63746.28;4175110;28;19971;-81
2024/02/25 10:25:08;;;;;;;;;;;;;;;-146.32;100.00;63746.28;4174978;28;19939;-81
2024/02/25 10:27:29;;;;;;;;;;;;;;;-146.32;100.00;63746.28;4159958;28;19984;-82
2024/02/25 10:29:51;;;;;;;;;;;;;;;-146.32;100.00;63746.28;4175778;28;19939;-81
2024/02/25 10:32:12;;;;;;;;;;;;;;;-146.32;100.00;63746.28;4172598;28;19932;-81
2024/02/25 10:34:33;;;;;;;;;;;;;;;-146.32;100.00;63746.28;4174569;28;20390;-81
2024/02/25 10:36:53;;;;;;;;;;;;;;;-146.32;100.00;63746.28;4159006;28;20015;-82
2024/02/25 10:39:16;;;;;;;;;;;;;;;-146.32;100.00;63746.28;4174667;28;19931;-79
2024/02/25 10:41:38;;;;;;;;;;;;;;;-146.32;100.00;63746.28;4175218;28;20379;-80
2024/02/25 10:44:00;;;;;;;;;;;;;;;-146.32;100.00;63746.28;4174276;28;20568;-80
2024/02/25 10:46:23;;;;;;;;;;;;;;;-146.32;100.00;63746.28;4174228;28;19971;-81
2024/02/25 10:48:44;;;;;;;;;;;;;;;-146.32;100.00;63746.28;4172490;28;19935;-80
2024/02/25 10:51:05;;;;;;;;;;;;;;;-146.32;100.00;63746.28;4172505;28;19975;-81
2024/02/25 10:53:28;;;;;;;;;;;;;;;-146.32;100.00;63746.28;4172400;28;19936;-82
2024/02/25 10:55:50;;;;;;;;;;;;;;;-146.32;100.00;63746.28;4158608;28;20407;-82
2024/02/25 10:58:14;;;;;;;;;;;;;;;-146.32;100.00;63746.28;4174016;28;20014;-81
2024/02/25 11:00:34;;;;;;;;;;;;;;;-146.32;100.00;63746.28;4173434;28;19963;-81
2024/02/25 11:02:55;;;;;;;;;;;;;;;-146.32;100.00;63746.28;4171805;28;19980;-81
2024/02/25 11:05:17;;;;;;;;;;;;;;;-146.32;100.00;63746.28;4173389;28;20395;-83
2024/02/25 11:07:38;;;;;;;;;;;;;;;-146.32;100.00;63746.28;4173401;28;20016;-79
2024/02/25 11:09:59;;;;;;;;;;;;;;;-146.32;100.00;63746.28;4173812;28;19987;-81
2024/02/25 11:12:22;;;;;;;;;;;;;;;-146.32;100.00;63746.28;4173068;28;19995;-79
2024/02/25 11:14:49;;;;;;;;;;;;;;;-146.32;100.00;63746.28;4173637;28;19948;-81
2024/02/25 11:17:15;;;;;;;;;;;;;;;-146.32;100.00;63746.28;4173763;28;19998;-79
2024/02/25 11:19:35;;;;;;;;;;;;;;;-146.32;100.00;63746.28;4173808;28;19936;-80
2024/02/25 11:21:56;;;;;;;;;;;;;;;-146.32;100.00;63746.28;4172266;28;19979;-81
2024/02/25 11:24:17;;;;;;;;;;;;;;;-146.32;100.00;63746.28;4173327;28;20344;-81
2024/02/25 11:26:40;;;;;;;;;;;;;;;-146.32;100.00;63746.28;4172045;28;20010;-79
2024/02/25 11:29:18;;;;;;;;;;;;;;;-146.32;100.00;63746.28;4172463;28;20049;-79
2024/02/25 11:31:48;;;;;;;;;;;;;;;-146.32;100.00;63746.28;4158420;28;20021;-81
2024/02/25 11:34:09;;;;;;;;;;;;;;;-146.32;100.00;63746.28;4158944;28;20016;-82
2024/02/25 11:36:30;;;;;;;;;;;;;;;-146.32;100.00;63746.28;4173744;28;20045;-83
2024/02/25 11:38:51;;;;;;;;;;;;;;;-146.32;100.00;63746.28;4174103;28;19975;-84
2024/02/25 11:41:12;;;;;;;;;;;;;;;-146.32;100.00;63746.28;4173101;28;20343;-81
2024/02/25 11:43:33;;;;;;;;;;;;;;;-146.32;100.00;63746.28;4173240;28;19935;-82
2024/02/25 11:45:55;;;;;;;;;;;;;;;-146.32;100.00;63746.28;4158716;28;20008;-82
2024/02/25 11:48:16;;;;;;;;;;;;;;;-146.32;100.00;63746.28;4171699;28;20290;-82
2024/02/25 11:50:37;;;;;;;;;;;;;;;-146.32;100.00;63746.28;4173359;28;19970;-82
2024/02/25 11:53:01;;;;;;;;;;;;;;;-146.32;100.00;63746.28;4172559;28;20283;-82